AirNav   Pilot Hours Calculator
 
 1375 users online  

WV52 Green Bank Observatory Airport
Green Bank, West Virginia, USA

GOING TO GREEN BANK?


FAA INFORMATION EFFECTIVE 02 DECEMBER 2021

Location

FAA Identifier: WV52
Lat/Long: 38-25-50.4260N 079-49-32.2050W
38-25.840433N 079-49.536750W
38.4306739,-79.8256125
(estimated)
Elevation: 2710 ft. / 826 m (estimated)
Variation: 07W (1985)
From city: 1 mile NE of GREEN BANK, WV
Time zone: UTC -5 (UTC -4 during Daylight Saving Time)
Zip code: 24944

Airport Operations

Airport use: Private use. Permission required prior to landing
Activation date: 06/1983
Control tower: no
ARTCC: WASHINGTON CENTER
FSS: ELKINS FLIGHT SERVICE STATION [703-724-4288]
Attendance: UNATNDD
Wind indicator: yes
Segmented circle: no

Airport Communications

UNICOM: 122.8

Nearby radio navigation aids

VOR radial/distance  VOR name  Freq  Var
EKNr163/31.7ELKINS VORTAC114.2007W

 
NDB name  Hdg/Dist  Freq  Var  ID
RANDOLPH COUNTY184/27.828407WRQY .-. --.- -.--

Airport Services

Airframe service: NONE
Powerplant service: NONE

Runway Information

Runway 12/30

Dimensions: 3500 x 50 ft. / 1067 x 15 m
Surface: asphalt
RUNWAY 12  RUNWAY 30
Traffic pattern: leftleft
Obstructions: 451 ft. tower, marked and lighted, 2175 ft. from runwaynone

Airport Ownership and Management from official FAA records

Ownership: Privately-owned
Owner: MICHAEL J HOLSTINE
PO BOX 2
GREEN BANK, WV 24944
Phone 304-456-2011
Manager: MICHAEL J HOLSTINE
PO BOX 2
GREEN BANK, WV 24944
Phone 304-456-2011

Additional Remarks

LAND BY PRIOR PERMISSION ONLY.
FOR CD CTC WASHINGTON ARTCC AT 703-771-3587.

Instrument Procedures

There are no published instrument procedures at WV52.

Some nearby airports with instrument procedures:

KEKN - Elkins-Randolph County Airport-Jennings Randolph Field (28 nm N)
KHSP - Ingalls Field Airport (29 nm S)
W22 - Upshur County Regional Airport (40 nm NW)
KVBW - Bridgewater Air Park (41 nm E)
48I - Braxton County Airport (42 nm W)
 
Loc | Ops | Rwys | IFR | FBO | Links
Com | Nav | Svcs | Stats | Notes
Area around WV52 (Green Bank Observatory Airport)
 
Road maps at: MapQuest Bing Google
 
Aerial photo
WARNING: Photo may not be current or correct
Aerial photo of WV52 (Green Bank Observatory Airport)
Do you have a better or more recent aerial photo of Green Bank Observatory Airport that you would like to share? If so, please send us your photo.

 
Sectional chart

 
Airport distance calculator
Flying to Green Bank Observatory Airport? Find the distance to fly.

From to WV52

Sunrise and sunset
Times for 07-Dec-2021
 Local
(UTC-5)
 Zulu
(UTC)
Morning civil twilight06:5511:55
Sunrise07:2412:24
Sunset16:5721:57
Evening civil twilight17:2722:27

Current date and time
Zulu (UTC)  07-Dec-2021 19:20:58
Local (UTC-5)  07-Dec-2021 14:20:58
 
METAR
KEKN 
27nm N 
071851Z AUTO 21006KT 10SM CLR 01/M09 A3014 RMK AO2 SLP230 T00111094
KW22 
40nm NW 
071855Z AUTO 26006KT 10SM CLR 01/M07 A3016 RMK AO2
KVBW 
41nm E 
071855Z AUTO 00000KT 10SM CLR 04/M11 A3015 RMK AO1 T00391112
KLWB 
43nm SW 
071850Z 00000KT 10SM CLR 03/M08 A3013
KSHD 
45nm E 
071855Z AUTO 29004KT 10SM CLR 05/M11 A3017 RMK AO2 T00451106
KW99 
47nm NE 
071855Z AUTO 00000KT 10SM CLR 05/M09 A3018 RMK AO2 T00491088
KW13 
47nm SE 
071855Z AUTO 33003KT 10SM CLR 05/M10 A3014 RMK AO1 T00471105
TAF
KEKN 
27nm N 
071721Z 0718/0818 16003KT P6SM FEW027 FM072100 VRB03KT P6SM BKN090 FM080800 00000KT P6SM OVC060 FM081100 00000KT P6SM OVC035
NOTAMs
Click for the latest NOTAMs
NOTAMs are issued by the DoD/FAA and will open in a separate window not controlled by AirNav.

 

 
 

Would you like to see your business listed on this page?

 If your business provides an interesting product or service to pilots, flight crews, aircraft, or users of the Green Bank Observatory Airport, you should consider listing it here.  To start the listing process, click on the button below
 
Add a business
 

Other Pages about Green Bank Observatory Airport

Update a link
 
Copyright © AirNav, LLC. All rights reserved. Privacy Policy  Contact